createdAt,value
2022-07-27T14:44:07.945Z,25.32
2022-07-27T14:46:40.597Z,25.18
2022-07-27T14:49:15.039Z,25.02
2022-07-27T14:51:47.648Z,24.91
2022-07-27T14:54:20.406Z,24.90
2022-07-27T14:56:52.654Z,24.89
2022-07-27T14:59:25.063Z,24.87
2022-07-27T15:01:57.577Z,24.88
2022-07-27T15:04:31.910Z,24.83
2022-07-27T15:07:04.782Z,24.74
2022-07-27T15:09:37.911Z,24.60
2022-07-27T15:12:10.682Z,24.48
2022-07-27T15:14:43.697Z,24.31
2022-07-27T15:17:16.498Z,24.19
2022-07-27T15:19:48.803Z,24.18
2022-07-27T15:22:21.617Z,24.20
2022-07-27T15:24:57.090Z,24.18
2022-07-27T15:27:29.507Z,24.18
2022-07-27T15:30:02.495Z,24.16
2022-07-27T15:32:34.927Z,24.19
2022-07-27T15:35:08.479Z,24.20
2022-07-27T15:37:40.801Z,24.19
2022-07-27T15:40:39.212Z,24.18
2022-07-27T15:43:14.253Z,24.14
2022-07-27T15:45:48.509Z,24.11
2022-07-27T15:48:23.292Z,24.10
2022-07-27T15:50:58.720Z,24.05
2022-07-27T15:53:32.202Z,23.96
2022-07-27T15:56:04.300Z,23.86
2022-07-27T15:58:37.190Z,23.80
2022-07-27T16:01:12.162Z,23.77
2022-07-27T16:03:45.525Z,23.72
2022-07-27T16:06:20.977Z,23.71
2022-07-27T16:08:53.509Z,23.71
2022-07-27T16:11:25.987Z,23.63
2022-07-27T16:13:58.665Z,23.56
2022-07-27T16:16:31.846Z,23.51
2022-07-27T16:19:12.906Z,23.46
2022-07-27T16:21:53.312Z,23.37
2022-07-27T16:24:28.125Z,23.34
2022-07-27T16:27:01.851Z,23.30
2022-07-27T16:29:34.506Z,23.27
2022-07-27T16:32:07.258Z,23.25
2022-07-27T16:34:40.177Z,23.24
2022-07-27T16:37:13.264Z,23.23
2022-07-27T16:39:45.871Z,23.20
2022-07-27T16:42:18.211Z,23.17
2022-07-27T16:44:51.096Z,23.14
2022-07-27T16:47:23.775Z,23.11
2022-07-27T16:49:56.475Z,23.09
2022-07-27T16:52:28.970Z,23.12
2022-07-27T16:55:01.887Z,23.16
2022-07-27T16:57:34.496Z,23.18
2022-07-27T17:00:10.159Z,23.13
2022-07-27T17:02:42.924Z,23.13
2022-07-27T17:05:15.408Z,23.10
2022-07-27T17:07:50.712Z,23.08
2022-07-27T17:10:27.226Z,23.06
2022-07-27T17:12:58.974Z,23.03
2022-07-27T17:15:32.775Z,22.97
2022-07-27T17:18:06.100Z,22.87
2022-07-27T17:20:40.264Z,22.80
2022-07-27T17:23:12.567Z,22.74
2022-07-27T17:25:45.387Z,22.64
2022-07-27T17:28:17.819Z,22.57
2022-07-27T17:30:50.644Z,22.48
2022-07-27T17:33:22.905Z,22.38
2022-07-27T17:35:58.234Z,22.31
2022-07-27T17:38:30.589Z,22.25
2022-07-27T17:41:04.887Z,22.18
2022-07-27T17:43:39.039Z,22.15
2022-07-27T17:46:13.076Z,22.13
2022-07-27T17:48:45.662Z,22.12
2022-07-27T17:51:18.108Z,22.09
2022-07-27T17:53:50.768Z,22.06
2022-07-27T17:56:23.328Z,22.02
2022-07-27T17:59:01.555Z,21.98
2022-07-27T18:01:48.401Z,21.94
2022-07-27T18:04:21.427Z,21.92
2022-07-27T18:06:53.885Z,21.89
2022-07-27T18:09:26.134Z,21.81
2022-07-27T18:11:58.761Z,21.76
2022-07-27T18:14:31.312Z,21.70
2022-07-27T18:17:03.872Z,21.66
2022-07-27T18:19:36.084Z,21.62
2022-07-27T18:22:08.865Z,21.59
2022-07-27T18:24:41.387Z,21.54
2022-07-27T18:27:14.031Z,21.49
2022-07-27T18:29:46.442Z,21.42
2022-07-27T18:32:19.078Z,21.34
2022-07-27T18:34:51.448Z,21.28
2022-07-27T18:37:24.131Z,21.22
2022-07-27T18:39:56.649Z,21.17
2022-07-27T18:42:29.257Z,21.10
2022-07-27T18:45:01.853Z,21.05
2022-07-27T18:47:34.443Z,21.01
2022-07-27T18:50:08.629Z,20.96
2022-07-27T18:52:41.334Z,20.91
2022-07-27T18:55:15.214Z,20.86
2022-07-27T18:57:47.945Z,20.81
2022-07-27T19:00:21.054Z,20.76
2022-07-27T19:02:57.243Z,20.71
2022-07-27T19:05:32.696Z,20.65
2022-07-27T19:08:14.334Z,20.61
2022-07-27T19:10:47.595Z,20.55
2022-07-27T19:13:20.074Z,20.49
2022-07-27T19:15:52.840Z,20.46
2022-07-27T19:18:26.483Z,20.40
2022-07-27T19:20:58.739Z,20.36
2022-07-27T19:23:31.190Z,20.33
2022-07-27T19:26:03.226Z,20.29
2022-07-27T19:28:35.638Z,20.25
2022-07-27T19:31:22.540Z,20.20
2022-07-27T19:33:53.772Z,20.14
2022-07-27T19:36:26.461Z,20.07
2022-07-27T19:39:04.142Z,20.02
2022-07-27T19:41:39.592Z,19.99
2022-07-27T19:44:12.057Z,19.94
2022-07-27T19:46:44.390Z,19.89
2022-07-27T19:49:18.434Z,19.85
2022-07-27T19:51:50.998Z,19.79
2022-07-27T19:54:23.167Z,19.78
2022-07-27T19:56:55.256Z,19.77
2022-07-27T19:59:27.870Z,19.75
2022-07-27T20:02:20.070Z,19.70
2022-07-27T20:04:52.586Z,19.66
2022-07-27T20:07:24.858Z,19.61
2022-07-27T20:09:57.168Z,19.55
2022-07-27T20:12:29.527Z,19.49
2022-07-27T20:15:01.991Z,19.44
2022-07-27T20:17:37.310Z,19.38
2022-07-27T20:20:12.449Z,19.30
2022-07-27T20:22:44.654Z,19.24
2022-07-27T20:25:18.650Z,19.20
2022-07-27T20:27:52.409Z,19.15
2022-07-27T20:30:24.750Z,19.09
2022-07-27T20:32:57.017Z,19.02
2022-07-27T20:35:35.316Z,18.97
2022-07-27T20:38:10.628Z,18.92
2022-07-27T20:40:43.034Z,18.87
2022-07-27T20:43:15.354Z,18.82
2022-07-27T20:45:47.488Z,18.77
2022-07-27T20:48:19.810Z,18.74
2022-07-27T20:50:53.551Z,18.68
2022-07-27T20:53:26.710Z,18.65
2022-07-27T20:55:59.220Z,18.61
2022-07-27T20:58:31.717Z,18.58
2022-07-27T21:01:04.354Z,18.55
2022-07-27T21:03:37.112Z,18.52
2022-07-27T21:06:10.109Z,18.48
2022-07-27T21:08:46.480Z,18.45
2022-07-27T21:11:20.380Z,18.41
2022-07-27T21:13:54.608Z,18.38
2022-07-27T21:16:27.093Z,18.33
2022-07-27T21:18:59.647Z,18.29
2022-07-27T21:21:32.380Z,18.24
2022-07-27T21:24:19.133Z,18.18
2022-07-27T21:26:53.777Z,18.14
2022-07-27T21:29:31.812Z,18.10
2022-07-27T21:32:04.562Z,18.07
2022-07-27T21:34:36.921Z,18.03
2022-07-27T21:37:09.595Z,18.00
2022-07-27T21:39:41.882Z,17.97
2022-07-27T21:42:14.482Z,17.90
2022-07-27T21:44:47.337Z,17.86
2022-07-27T21:47:19.822Z,17.78
2022-07-27T21:49:52.084Z,17.74
2022-07-27T21:52:24.470Z,17.70
2022-07-27T21:54:56.695Z,17.69
2022-07-27T21:57:29.118Z,17.64
2022-07-27T22:00:01.485Z,17.60
2022-07-27T22:02:36.667Z,17.59
2022-07-27T22:05:09.903Z,17.57
2022-07-27T22:07:42.611Z,17.56
2022-07-27T22:10:16.389Z,17.53
2022-07-27T22:12:48.986Z,17.51
2022-07-27T22:15:21.411Z,17.49
2022-07-27T22:17:53.539Z,17.46
2022-07-27T22:20:26.385Z,17.45
2022-07-27T22:22:59.118Z,17.39
2022-07-27T22:25:31.593Z,17.36
2022-07-27T22:28:03.929Z,17.33
2022-07-27T22:30:36.596Z,17.32
2022-07-27T22:33:09.697Z,17.30
2022-07-27T22:35:42.548Z,17.25
2022-07-27T22:38:14.889Z,17.17
2022-07-27T22:40:47.037Z,17.11
2022-07-27T22:43:23.009Z,17.06
2022-07-27T22:45:55.753Z,17.01
2022-07-27T22:48:28.323Z,16.97
2022-07-27T22:51:00.712Z,16.91
2022-07-27T22:53:33.169Z,16.89
2022-07-27T22:56:06.088Z,16.88
2022-07-27T22:58:38.227Z,16.85
2022-07-27T23:01:14.890Z,16.81
2022-07-27T23:04:02.946Z,16.74
2022-07-27T23:06:35.235Z,16.67
2022-07-27T23:09:07.493Z,16.60
2022-07-27T23:11:39.733Z,16.55
2022-07-27T23:14:12.381Z,16.49
2022-07-27T23:16:45.555Z,16.47
2022-07-27T23:19:17.676Z,16.44
2022-07-27T23:21:50.644Z,16.41
2022-07-27T23:24:29.343Z,16.42
2022-07-27T23:27:02.304Z,16.44
2022-07-27T23:29:34.644Z,16.42
2022-07-27T23:32:11.065Z,16.39
2022-07-27T23:34:43.320Z,16.33
2022-07-27T23:37:15.978Z,16.27
2022-07-27T23:39:49.056Z,16.20
2022-07-27T23:42:21.388Z,16.16
2022-07-27T23:44:53.928Z,16.13
2022-07-27T23:47:26.988Z,16.09
2022-07-27T23:49:59.363Z,16.05
2022-07-27T23:52:31.727Z,15.99
2022-07-27T23:55:04.038Z,15.97
2022-07-27T23:57:36.443Z,15.95
